L'gov, Russia
Current Conditions -  °F | °C
As of 9:00 PM on Tuesday 21 Oct 2014 (Local Time) from UUOK Reporting Station
Light Rain Light Rain  
Wind Chill: 50°   Ceiling: 1100
Heat Index: 50°   Visibility: 4mi
Dew Point: 48°   Wind: 11mph
Humidity: 94%   Direction: 270°W
Pressure: 29.56"   Gusts: NA
Location:  51.65°N, 35.28°E
Report Text: UUOK 211800Z 27005MPS 6000 -RA OVC011 10/09 Q1001 NOSIG RMK30290050
Loading
Personal Weather Stations






























Interactive Weather Map
Tropical Storm Tracking
New forecast layout! Learn more

10-Day Weather Forecast

Advertisements
Track Severe Weather on mobile